CDT,Max TemperatureF,Mean TemperatureF,Min TemperatureF,Max Dew PointF,MeanDew PointF,Min DewpointF,Max Humidity, Mean Humidity, Min Humidity, Max Sea Level PressureIn, Mean Sea Level PressureIn, Min Sea Level PressureIn, Max VisibilityMiles, Mean VisibilityMiles, Min VisibilityMiles, Max Wind SpeedMPH, Mean Wind SpeedMPH, Max Gust SpeedMPH,PrecipitationIn, CloudCover, Events, WindDirDegrees
2013-10-1,88,80,71,72,70,69,100,78,55,30.06,30.01,29.96,10,10,9,14,6,,0.00,3,,139
2013-10-2,89,79,68,72,69,66,97,74,50,30.09,30.04,29.98,10,10,9,13,5,16,T,2,Rain,115
2013-10-3,88,80,71,73,71,68,100,78,55,30.06,30.01,29.96,10,8,5,12,5,16,0.01,4,Rain,135
2013-10-4,90,81,71,73,71,70,93,74,55,30.06,30.01,29.96,10,10,8,15,7,18,0.00,5,,145
2013-10-5,90,78,66,73,71,64,100,80,59,30.04,29.99,29.91,10,9,2,18,7,24,0.00,3,,140
2013-10-6,77,64,50,72,61,50,100,74,47,30.02,29.94,29.86,10,8,2,16,5,23,0.51,5,Rain-Thunderstorm,330
2013-10-7,75,61,46,54,51,46,93,69,44,30.12,30.07,30.02,10,10,10,17,6,21,0.00,0,,341
2013-10-8,77,63,48,54,51,46,100,71,41,30.13,30.09,30.05,10,10,8,12,6,17,0.00,0,,9
2013-10-9,81,63,45,64,51,44,100,71,42,30.15,30.08,30.04,10,6,0,13,2,16,0.00,0,Fog,97
2013-10-10,84,70,56,66,63,55,100,76,51,30.16,30.08,30.01,10,7,0,10,3,13,0.00,4,Fog,112
2013-10-11,84,70,55,68,62,55,100,76,51,30.09,30.02,29.98,10,5,0,10,3,15,0.00,3,Fog,165
2013-10-12,87,73,58,72,66,57,100,80,59,30.11,30.04,29.99,10,5,0,24,3,32,0.67,3,Fog-Rain-Thunderstorm,140
2013-10-13,84,74,63,71,67,63,100,83,65,30.23,30.15,30.10,10,5,0,10,5,14,0.00,3,Fog,22
2013-10-14,86,74,61,66,63,59,100,72,44,30.17,30.12,30.05,10,8,2,9,3,12,0.00,0,,68
2013-10-15,83,73,63,71,66,61,100,79,58,30.07,30.01,29.95,10,10,6,12,4,18,0.00,5,,159
2013-10-16,75,69,62,70,67,60,100,92,84,30.01,29.97,29.93,10,9,1,15,5,21,0.29,8,Rain,354
2013-10-17,71,60,48,61,55,46,97,79,61,30.09,30.02,29.96,10,7,0,8,3,14,T,5,Fog-Rain,344
2013-10-18,73,61,48,60,54,47,100,75,49,30.11,30.04,29.97,10,6,0,14,2,17,0.00,2,Fog,109
2013-10-19,72,57,42,60,55,45,100,80,59,30.11,30.04,29.99,10,9,2,16,4,21,0.03,3,Rain,349
2013-10-20,71,53,35,48,40,34,100,64,28,30.15,30.09,30.02,10,9,2,8,1,10,0.00,0,,97
2013-10-21,75,57,39,58,50,39,100,73,46,30.11,30.04,30.00,10,7,1,8,1,12,0.00,0,,142
2013-10-22,73,58,42,56,52,43,100,72,44,30.08,30.03,30.00,10,6,0,13,4,18,0.00,3,Fog,352
2013-10-23,73,57,40,53,42,39,100,66,31,30.17,30.12,30.05,10,7,0,18,4,18,0.00,0,Fog,9
2013-10-24,79,60,41,54,48,40,96,68,39,30.33,30.20,30.12,10,10,8,16,7,24,0.00,0,,3
2013-10-25,65,51,37,42,36,32,92,61,30,30.50,30.41,30.35,10,10,10,15,7,21,0.00,0,,44
2013-10-26,73,54,35,50,41,34,100,67,33,30.35,30.26,30.16,10,9,2,9,2,12,0.00,0,,153
2013-10-27,68,56,43,63,56,42,100,87,73,30.17,30.11,30.06,10,9,4,8,2,9,0.01,6,Rain,159
2013-10-28,76,64,52,65,59,52,100,82,64,30.21,30.15,30.08,10,6,0,8,2,9,T,5,Fog,116
2013-10-29,82,68,54,64,58,52,100,77,54,30.25,30.20,30.15,10,5,0,13,5,18,0.00,2,Fog,147
2013-10-30,76,68,61,67,64,59,100,87,74,30.20,30.12,30.00,10,7,1,13,7,17,0.01,1,Rain,145
2013-10-31,73,69,64,71,67,63,97,91,84,29.97,29.84,29.73,,,,46,11,60,2.02,6,Rain,179